createdAt,value
2017-11-11T00:00:06.784Z,5.68
2017-11-11T00:01:06.788Z,5.68
2017-11-11T00:02:06.793Z,5.41
2017-11-11T00:03:06.758Z,4.81
2017-11-11T00:04:06.747Z,4.94
2017-11-11T00:05:07.392Z,4.87
2017-11-11T00:06:06.738Z,5.13
2017-11-11T00:07:06.717Z,5.63
2017-11-11T00:08:06.714Z,5.52
2017-11-11T00:09:06.690Z,5.16
2017-11-11T00:10:06.681Z,5.85
2017-11-11T00:11:06.685Z,5.52
2017-11-11T00:12:06.670Z,5.42
2017-11-11T00:13:06.653Z,5.60
2017-11-11T00:14:06.636Z,5.64
2017-11-11T00:15:06.627Z,5.98
2017-11-11T00:16:06.615Z,5.38
2017-11-11T00:17:06.639Z,5.76
2017-11-11T00:18:06.617Z,5.21
2017-11-11T00:19:06.638Z,5.17
2017-11-11T00:20:06.641Z,4.87
2017-11-11T00:21:06.562Z,4.93
2017-11-11T00:22:06.825Z,5.30
2017-11-11T00:23:06.528Z,4.96
2017-11-11T00:24:06.513Z,5.11
2017-11-11T00:25:06.511Z,5.14
2017-11-11T00:26:06.496Z,5.47
2017-11-11T00:27:06.494Z,5.33
2017-11-11T00:28:06.472Z,5.22
2017-11-11T00:29:06.466Z,5.43
2017-11-11T00:30:06.449Z,5.31
2017-11-11T00:31:06.439Z,5.20
2017-11-11T00:32:06.428Z,5.90
2017-11-11T00:33:06.415Z,5.58
2017-11-11T00:34:06.409Z,5.35
2017-11-11T00:35:06.399Z,5.32
2017-11-11T00:36:06.380Z,5.80
2017-11-11T00:37:06.376Z,5.83
2017-11-11T00:38:06.368Z,5.71
2017-11-11T00:39:06.381Z,5.68
2017-11-11T00:40:06.340Z,5.41
2017-11-11T00:41:06.339Z,6.22
2017-11-11T00:42:06.330Z,5.98
2017-11-11T00:43:06.294Z,5.84
2017-11-11T00:44:06.303Z,6.38
2017-11-11T00:45:06.282Z,5.77
2017-11-11T00:46:06.264Z,6.04
2017-11-11T00:47:06.252Z,6.61
2017-11-11T00:48:06.251Z,6.02
2017-11-11T00:49:06.241Z,6.49
2017-11-11T00:50:06.231Z,6.06
2017-11-11T00:51:06.216Z,5.96
2017-11-11T00:52:06.214Z,6.40
2017-11-11T00:53:06.190Z,5.92
2017-11-11T00:54:06.191Z,5.96
2017-11-11T00:55:06.182Z,5.89
2017-11-11T00:56:06.169Z,6.11
2017-11-11T00:57:06.155Z,6.66
2017-11-11T00:58:06.138Z,6.19
2017-11-11T00:59:06.148Z,6.30
2017-11-11T01:00:06.109Z,6.50
2017-11-11T01:01:06.118Z,6.55
2017-11-11T01:02:06.088Z,7.16
2017-11-11T01:03:06.078Z,6.03
2017-11-11T01:04:06.066Z,6.19
2017-11-11T01:05:06.080Z,6.48
2017-11-11T01:06:06.036Z,6.22
2017-11-11T01:07:06.031Z,6.15
2017-11-11T01:08:06.014Z,6.71
2017-11-11T01:09:06.026Z,5.76
2017-11-11T01:10:06.025Z,6.41
2017-11-11T01:11:05.986Z,6.34
2017-11-11T01:12:05.980Z,6.30
2017-11-11T01:13:05.967Z,6.65
2017-11-11T01:14:05.966Z,6.59
2017-11-11T01:15:05.941Z,6.62
2017-11-11T01:16:05.944Z,6.72
2017-11-11T01:17:05.913Z,7.32
2017-11-11T01:18:05.912Z,6.73
2017-11-11T01:19:05.901Z,7.08
2017-11-11T01:20:05.949Z,6.75
2017-11-11T01:21:05.893Z,7.43
2017-11-11T01:22:05.881Z,7.06
2017-11-11T01:23:05.848Z,6.97
2017-11-11T01:24:05.850Z,6.86
2017-11-11T01:25:05.849Z,6.42
2017-11-11T01:26:05.833Z,6.78
2017-11-11T01:27:05.810Z,6.63
2017-11-11T01:28:05.798Z,7.00
2017-11-11T01:29:05.781Z,6.55
2017-11-11T01:30:05.773Z,7.45
2017-11-11T01:31:05.766Z,6.86
2017-11-11T01:32:05.765Z,7.38
2017-11-11T01:33:05.756Z,7.24
2017-11-11T01:34:05.735Z,6.70
2017-11-11T01:35:05.723Z,6.70
2017-11-11T01:36:05.705Z,6.63
2017-11-11T01:37:05.714Z,6.71
2017-11-11T01:38:05.689Z,6.52
2017-11-11T01:39:05.665Z,6.30
2017-11-11T01:40:05.657Z,6.16
2017-11-11T01:41:05.646Z,6.83
2017-11-11T01:42:05.639Z,6.69
2017-11-11T01:43:05.637Z,6.90
2017-11-11T01:44:05.624Z,6.66
2017-11-11T01:45:05.613Z,7.51
2017-11-11T01:46:05.604Z,7.25
2017-11-11T01:47:05.607Z,6.57
2017-11-11T01:48:05.576Z,6.66
2017-11-11T01:49:05.562Z,6.81
2017-11-11T01:50:05.552Z,6.61
2017-11-11T01:51:05.558Z,7.31
2017-11-11T01:52:05.530Z,6.83
2017-11-11T01:53:05.518Z,6.78
2017-11-11T01:54:05.500Z,6.97
2017-11-11T01:55:05.502Z,6.95
2017-11-11T01:56:05.485Z,6.92
2017-11-11T01:57:05.466Z,6.69
2017-11-11T01:58:05.466Z,6.72
2017-11-11T01:59:05.457Z,7.22
2017-11-11T02:00:05.439Z,6.87
2017-11-11T02:01:05.444Z,6.84
2017-11-11T02:02:05.413Z,6.51
2017-11-11T02:03:05.416Z,6.77
2017-11-11T02:04:05.394Z,7.80
2017-11-11T02:05:05.388Z,7.50
2017-11-11T02:06:05.378Z,7.30
2017-11-11T02:07:05.377Z,7.09
2017-11-11T02:08:05.355Z,7.27
2017-11-11T02:09:05.338Z,7.12
2017-11-11T02:10:05.351Z,7.29
2017-11-11T02:11:05.323Z,7.42
2017-11-11T02:12:05.303Z,7.57
2017-11-11T02:13:05.296Z,7.04
2017-11-11T02:14:05.287Z,7.48
2017-11-11T02:15:05.279Z,7.58
2017-11-11T02:16:05.258Z,7.11
2017-11-11T02:17:05.256Z,8.69
2017-11-11T02:18:05.243Z,8.31
2017-11-11T02:19:05.243Z,7.41
2017-11-11T02:20:05.230Z,7.60
2017-11-11T02:21:05.210Z,8.02
2017-11-11T02:22:05.194Z,8.78
2017-11-11T02:23:05.188Z,8.93
2017-11-11T02:24:05.174Z,9.35
2017-11-11T02:25:05.159Z,9.73
2017-11-11T02:26:05.151Z,9.34
2017-11-11T02:27:05.150Z,8.40
2017-11-11T02:28:05.136Z,9.20
2017-11-11T02:29:05.125Z,9.69
2017-11-11T02:30:05.108Z,9.30
2017-11-11T02:31:05.100Z,8.59
2017-11-11T02:32:05.098Z,8.90
2017-11-11T02:33:05.086Z,8.10
2017-11-11T02:34:05.929Z,7.92
2017-11-11T02:35:05.056Z,7.68
2017-11-11T02:36:05.031Z,8.00
2017-11-11T02:37:05.055Z,7.98
2017-11-11T02:38:05.013Z,8.27
2017-11-11T02:39:05.009Z,9.58
2017-11-11T02:40:04.999Z,9.58
2017-11-11T02:41:04.984Z,9.60
2017-11-11T02:42:04.973Z,8.71
2017-11-11T02:43:04.978Z,9.32
2017-11-11T02:44:04.958Z,9.04
2017-11-11T02:45:04.951Z,9.60
2017-11-11T02:46:04.926Z,9.26
2017-11-11T02:47:04.918Z,9.57
2017-11-11T02:48:04.906Z,9.18
2017-11-11T02:49:04.897Z,7.53
2017-11-11T02:50:04.892Z,8.48
2017-11-11T02:51:04.870Z,8.96
2017-11-11T02:52:04.873Z,8.09
2017-11-11T02:53:04.860Z,7.99
2017-11-11T02:54:04.873Z,9.68
2017-11-11T02:55:04.837Z,10.34
2017-11-11T02:56:04.818Z,8.89
2017-11-11T02:57:04.815Z,7.78
2017-11-11T02:58:04.793Z,7.82
2017-11-11T02:59:04.780Z,8.03
2017-11-11T03:00:04.772Z,8.45
2017-11-11T03:01:04.773Z,8.93
2017-11-11T03:02:04.758Z,9.49
2017-11-11T03:03:04.751Z,10.22
2017-11-11T03:04:04.732Z,8.68
2017-11-11T03:05:04.723Z,9.01
2017-11-11T03:06:04.734Z,10.16
2017-11-11T03:07:04.709Z,9.05
2017-11-11T03:08:04.691Z,9.40
2017-11-11T03:09:04.678Z,7.52
2017-11-11T03:10:04.678Z,9.34
2017-11-11T03:11:04.649Z,8.99
2017-11-11T03:12:04.644Z,8.55
2017-11-11T03:13:04.627Z,8.31
2017-11-11T03:14:04.636Z,8.07
2017-11-11T03:15:04.623Z,7.83
2017-11-11T03:16:04.603Z,8.25
2017-11-11T03:17:04.588Z,8.48
2017-11-11T03:18:04.582Z,8.09
2017-11-11T03:19:04.584Z,7.66
2017-11-11T03:20:04.563Z,8.30
2017-11-11T03:21:04.551Z,8.68
2017-11-11T03:22:04.529Z,8.28
2017-11-11T03:23:04.519Z,8.23
2017-11-11T03:24:04.513Z,7.72
2017-11-11T03:25:04.501Z,7.74
2017-11-11T03:26:04.488Z,7.83
2017-11-11T03:27:04.481Z,7.30
2017-11-11T03:28:04.476Z,7.22
2017-11-11T03:29:04.461Z,7.72
2017-11-11T03:30:04.451Z,7.25
2017-11-11T03:31:04.444Z,6.44
2017-11-11T03:32:04.423Z,6.80
2017-11-11T03:33:04.413Z,7.86
2017-11-11T03:34:04.404Z,7.45
2017-11-11T03:35:04.386Z,7.18
2017-11-11T03:36:04.376Z,6.80
2017-11-11T03:37:04.396Z,7.44
2017-11-11T03:38:04.355Z,9.34
2017-11-11T03:39:04.338Z,10.69
2017-11-11T03:40:04.335Z,9.44
2017-11-11T03:41:04.318Z,8.28
2017-11-11T03:42:04.314Z,7.07
2017-11-11T03:43:04.310Z,7.42
2017-11-11T03:44:04.290Z,7.80
2017-11-11T03:44:16.279Z,0.33
2017-11-11T03:46:04.269Z,7.47
2017-11-11T03:47:04.260Z,7.22
2017-11-11T03:48:04.244Z,6.73
2017-11-11T03:49:04.239Z,6.76
2017-11-11T03:50:04.229Z,6.82
2017-11-11T03:51:04.207Z,6.62
2017-11-11T03:52:04.199Z,6.50
2017-11-11T03:53:04.192Z,6.54
2017-11-11T03:54:04.180Z,7.23
2017-11-11T03:55:04.169Z,6.59
2017-11-11T03:56:04.154Z,6.31
2017-11-11T03:57:04.143Z,6.03
2017-11-11T03:58:04.133Z,6.58
2017-11-11T03:59:04.121Z,6.69
2017-11-11T04:00:04.104Z,6.83
2017-11-11T04:01:04.118Z,7.42
2017-11-11T04:02:04.088Z,5.68
2017-11-11T04:03:04.069Z,5.87
2017-11-11T04:04:04.068Z,6.41
2017-11-11T04:05:04.060Z,6.04
2017-11-11T04:06:04.041Z,5.68
2017-11-11T04:07:04.031Z,6.47
2017-11-11T04:08:04.012Z,6.05
2017-11-11T04:09:04.013Z,6.00
2017-11-11T04:10:04.001Z,6.30
2017-11-11T04:11:04.958Z,6.42
2017-11-11T04:12:03.990Z,7.06
2017-11-11T04:13:03.964Z,5.97
2017-11-11T04:14:03.964Z,5.89
2017-11-11T04:15:03.943Z,6.19
2017-11-11T04:16:03.939Z,6.50
2017-11-11T04:17:03.922Z,6.81
2017-11-11T04:18:03.916Z,6.78
2017-11-11T04:19:03.897Z,6.68
2017-11-11T04:20:03.884Z,6.54
2017-11-11T04:21:03.880Z,6.24
2017-11-11T04:22:03.862Z,6.66
2017-11-11T04:23:03.844Z,6.95
2017-11-11T04:24:03.839Z,7.68
2017-11-11T04:25:03.831Z,7.08
2017-11-11T04:26:03.819Z,6.99
2017-11-11T04:27:03.807Z,7.26
2017-11-11T04:28:03.789Z,6.72
2017-11-11T04:29:03.799Z,6.48
2017-11-11T04:30:03.783Z,6.43
2017-11-11T04:31:03.754Z,7.01
2017-11-11T04:32:03.745Z,7.79
2017-11-11T04:33:03.741Z,6.86
2017-11-11T04:34:03.739Z,7.35
2017-11-11T04:35:03.719Z,7.29
2017-11-11T04:36:03.719Z,6.59
2017-11-11T04:37:03.697Z,6.55
2017-11-11T04:38:03.690Z,7.31
2017-11-11T04:39:03.679Z,7.14
2017-11-11T04:40:03.667Z,6.79
2017-11-11T04:41:03.659Z,7.47
2017-11-11T04:42:03.648Z,6.78
2017-11-11T04:43:03.635Z,6.78
2017-11-11T04:44:03.621Z,6.90
2017-11-11T04:45:03.609Z,6.40
2017-11-11T04:46:03.605Z,6.65
2017-11-11T04:47:03.582Z,6.53
2017-11-11T04:48:03.582Z,7.12
2017-11-11T04:49:03.569Z,6.50
2017-11-11T04:50:03.562Z,7.06
2017-11-11T04:51:03.564Z,6.84
2017-11-11T04:52:03.534Z,7.03
2017-11-11T04:53:03.536Z,7.05
2017-11-11T04:54:03.520Z,6.73
2017-11-11T04:55:03.517Z,6.90
2017-11-11T04:56:03.502Z,7.03
2017-11-11T04:57:03.493Z,7.27
2017-11-11T04:58:03.489Z,7.07
2017-11-11T04:59:03.469Z,6.82
2017-11-11T05:00:03.481Z,7.00
2017-11-11T05:01:03.448Z,6.80
2017-11-11T05:02:03.451Z,6.76
2017-11-11T05:03:03.428Z,7.09
2017-11-11T05:04:03.416Z,6.74
2017-11-11T05:05:03.403Z,6.88
2017-11-11T05:06:03.413Z,6.91
2017-11-11T05:07:03.382Z,6.54
2017-11-11T05:08:03.388Z,6.92
2017-11-11T05:09:03.363Z,6.35
2017-11-11T05:10:03.355Z,6.58
2017-11-11T05:11:03.340Z,6.69
2017-11-11T05:12:03.341Z,6.37
2017-11-11T05:13:03.330Z,6.56
2017-11-11T05:14:03.321Z,6.18
2017-11-11T05:15:03.296Z,6.79
2017-11-11T05:16:03.281Z,6.33
2017-11-11T05:17:03.290Z,6.28
2017-11-11T05:18:03.277Z,6.31
2017-11-11T05:19:03.264Z,6.35
2017-11-11T05:20:03.245Z,6.82
2017-11-11T05:21:03.231Z,7.10
2017-11-11T05:22:03.227Z,6.01
2017-11-11T05:23:03.996Z,6.89
2017-11-11T05:24:03.217Z,6.39
2017-11-11T05:25:03.197Z,6.58
2017-11-11T05:26:03.188Z,6.45
2017-11-11T05:27:03.171Z,6.21
2017-11-11T05:28:03.177Z,6.58
2017-11-11T05:29:03.171Z,6.66
2017-11-11T05:30:03.144Z,7.32
2017-11-11T05:31:03.127Z,6.60
2017-11-11T05:32:03.125Z,6.57
2017-11-11T05:33:03.117Z,7.00
2017-11-11T05:34:03.116Z,6.76
2017-11-11T05:35:03.098Z,6.80
2017-11-11T05:36:04.007Z,6.30
2017-11-11T05:37:03.092Z,6.24
2017-11-11T05:38:03.061Z,6.50
2017-11-11T05:39:03.061Z,6.14
2017-11-11T05:40:03.053Z,6.66
2017-11-11T05:41:03.038Z,6.70
2017-11-11T05:42:03.029Z,6.90
2017-11-11T05:43:04.000Z,6.19
2017-11-11T05:44:03.003Z,6.44
2017-11-11T05:45:02.995Z,6.72
2017-11-11T05:46:02.978Z,6.34
2017-11-11T05:47:02.979Z,5.89
2017-11-11T05:48:03.517Z,6.58
2017-11-11T05:49:02.998Z,6.20
2017-11-11T05:50:02.937Z,5.93
2017-11-11T05:51:02.928Z,6.04
2017-11-11T05:52:11.562Z,6.57
2017-11-11T05:54:55.472Z,6.62
2017-11-11T05:55:47.259Z,6.52
2017-11-11T05:58:40.273Z,6.14
2017-11-11T05:59:31.607Z,6.17
2017-11-11T06:02:16.007Z,5.87
2017-11-11T06:03:23.615Z,5.98
2017-11-11T06:06:03.374Z,6.14
2017-11-11T06:07:02.833Z,5.98
2017-11-11T06:09:55.868Z,5.57
2017-11-11T06:10:47.194Z,5.45
2017-11-11T06:13:30.558Z,5.24
2017-11-11T06:14:39.180Z,5.44
2017-11-11T06:17:23.522Z,5.54
2017-11-11T06:18:14.859Z,4.97
2017-11-11T06:19:22.525Z,5.12
2017-11-11T06:22:15.806Z,5.76
2017-11-11T06:23:15.819Z,5.43
2017-11-11T06:25:50.680Z,4.96
2017-11-11T06:26:51.236Z,5.15
2017-11-11T06:30:07.736Z,4.64
2017-11-11T06:31:06.724Z,5.35
2017-11-11T06:33:50.525Z,5.25
2017-11-11T06:34:50.492Z,5.28
2017-11-11T06:35:50.479Z,5.42
2017-11-11T06:36:50.459Z,5.09
2017-11-11T06:37:50.451Z,5.18
2017-11-11T06:38:50.446Z,5.18
2017-11-11T06:39:50.439Z,4.98
2017-11-11T06:40:51.062Z,4.90
2017-11-11T06:41:50.405Z,4.65
2017-11-11T06:42:51.069Z,4.80
2017-11-11T06:43:50.391Z,4.59
2017-11-11T06:44:51.068Z,4.72
2017-11-11T06:45:50.369Z,4.93
2017-11-11T06:46:50.365Z,4.58
2017-11-11T06:47:50.359Z,5.18
2017-11-11T06:48:50.334Z,4.75
2017-11-11T06:49:50.338Z,4.88
2017-11-11T06:50:50.332Z,5.04
2017-11-11T06:51:50.310Z,4.95
2017-11-11T06:52:50.301Z,5.06
2017-11-11T06:53:50.285Z,4.93
2017-11-11T06:54:50.276Z,4.65
2017-11-11T06:55:50.287Z,5.22
2017-11-11T06:56:50.250Z,4.46
2017-11-11T06:57:51.066Z,4.92
2017-11-11T06:58:50.233Z,4.41
2017-11-11T06:59:50.249Z,4.34
2017-11-11T07:00:50.238Z,4.30
2017-11-11T07:01:50.213Z,5.33
2017-11-11T07:02:50.215Z,5.45
2017-11-11T07:03:50.193Z,5.34
2017-11-11T07:04:57.817Z,6.37
2017-11-11T07:07:35.537Z,5.02
2017-11-11T07:08:35.499Z,5.73
2017-11-11T07:11:27.972Z,5.95
2017-11-11T07:12:27.485Z,5.00
2017-11-11T07:15:13.847Z,5.28
2017-11-11T07:16:16.313Z,4.56
2017-11-11T07:18:57.873Z,4.11
2017-11-11T07:19:57.821Z,4.71
2017-11-11T07:22:33.577Z,4.23
2017-11-11T07:23:33.541Z,4.46
2017-11-11T07:24:33.527Z,5.42
2017-11-11T07:25:33.526Z,4.22
2017-11-11T07:26:33.502Z,4.98
2017-11-11T07:27:33.541Z,4.71
2017-11-11T07:28:33.498Z,4.30
2017-11-11T07:29:34.102Z,4.55
2017-11-11T07:30:33.467Z,4.45
2017-11-11T07:31:36.109Z,3.82
2017-11-11T07:32:33.457Z,4.37
2017-11-11T07:33:33.430Z,4.38
2017-11-11T07:34:33.528Z,4.05
2017-11-11T07:35:34.183Z,4.23
2017-11-11T07:36:33.424Z,3.65
2017-11-11T07:37:33.400Z,4.00
2017-11-11T07:38:33.396Z,3.52
2017-11-11T07:39:33.378Z,3.67
2017-11-11T07:40:33.380Z,3.71
2017-11-11T07:41:33.384Z,3.94
2017-11-11T07:42:33.412Z,4.23
2017-11-11T07:43:33.342Z,3.98
2017-11-11T07:44:33.337Z,4.40
2017-11-11T07:45:33.317Z,3.98
2017-11-11T07:46:33.316Z,4.32
2017-11-11T07:47:33.317Z,4.00
2017-11-11T07:48:33.285Z,3.77
2017-11-11T07:49:33.327Z,3.89
2017-11-11T07:50:33.260Z,3.97
2017-11-11T07:51:33.257Z,3.41
2017-11-11T07:52:33.241Z,3.78
2017-11-11T07:53:33.233Z,4.85
2017-11-11T07:54:33.227Z,5.42
2017-11-11T07:55:33.226Z,4.06
2017-11-11T07:56:33.211Z,3.99
2017-11-11T07:57:33.190Z,4.51
2017-11-11T07:58:33.189Z,4.02
2017-11-11T07:59:33.182Z,3.93
2017-11-11T08:00:33.168Z,4.01
2017-11-11T08:01:33.164Z,3.84
2017-11-11T08:02:33.163Z,3.68
2017-11-11T08:03:33.140Z,3.56
2017-11-11T08:04:33.129Z,3.63
2017-11-11T08:05:33.134Z,3.67
2017-11-11T08:06:33.113Z,4.38
2017-11-11T08:07:33.097Z,4.31
2017-11-11T08:08:33.087Z,4.36
2017-11-11T08:09:33.087Z,5.06
2017-11-11T08:10:35.617Z,5.36
2017-11-11T08:11:33.180Z,5.52
2017-11-11T08:12:33.056Z,4.86
2017-11-11T08:13:33.047Z,6.20
2017-11-11T08:14:33.041Z,5.77
2017-11-11T08:15:33.626Z,4.88
2017-11-11T08:16:33.024Z,4.77
2017-11-11T08:17:33.010Z,5.44
2017-11-11T08:18:33.634Z,4.30
2017-11-11T08:19:32.993Z,3.90
2017-11-11T08:20:32.979Z,3.95
2017-11-11T08:21:32.981Z,3.50
2017-11-11T08:22:33.637Z,3.32
2017-11-11T08:23:33.072Z,3.92
2017-11-11T08:24:34.169Z,3.39
2017-11-11T08:25:32.944Z,3.00
2017-11-11T08:26:32.919Z,3.18
2017-11-11T08:27:32.920Z,3.24
2017-11-11T08:28:32.923Z,3.47
2017-11-11T08:29:32.894Z,3.49
2017-11-11T08:30:33.620Z,3.29
2017-11-11T08:31:32.886Z,2.98
2017-11-11T08:32:32.883Z,3.48
2017-11-11T08:33:32.863Z,3.15
2017-11-11T08:34:32.866Z,3.33
2017-11-11T08:35:32.844Z,3.06
2017-11-11T08:36:32.830Z,3.18
2017-11-11T08:37:32.832Z,3.04
2017-11-11T08:38:32.815Z,3.10
2017-11-11T08:39:32.840Z,3.66
2017-11-11T08:40:32.794Z,3.37
2017-11-11T08:41:32.806Z,3.27
2017-11-11T08:42:32.780Z,3.03
2017-11-11T08:43:33.629Z,2.98
2017-11-11T08:44:32.770Z,3.04
2017-11-11T08:45:32.749Z,2.79
2017-11-11T08:46:32.769Z,3.13
2017-11-11T08:47:32.736Z,2.94
2017-11-11T08:48:32.721Z,3.31
2017-11-11T08:49:32.718Z,3.07
2017-11-11T08:50:32.730Z,3.00
2017-11-11T08:51:32.712Z,3.03
2017-11-11T08:52:32.700Z,3.19
2017-11-11T08:53:32.694Z,3.01
2017-11-11T08:54:32.677Z,3.06
2017-11-11T08:55:32.670Z,3.18
2017-11-11T08:56:35.656Z,2.99
2017-11-11T08:57:32.647Z,2.91
2017-11-11T08:58:32.637Z,3.08
2017-11-11T08:59:32.630Z,3.53
2017-11-11T09:00:32.614Z,3.06
2017-11-11T09:01:32.609Z,3.12
2017-11-11T09:02:33.141Z,3.18
2017-11-11T09:02:44.627Z,0.12
2017-11-11T09:04:32.585Z,3.05
2017-11-11T09:05:32.576Z,2.69
2017-11-11T09:06:33.145Z,3.19
2017-11-11T09:07:32.557Z,3.23
2017-11-11T09:08:32.566Z,3.10
2017-11-11T09:09:32.574Z,2.97
2017-11-11T09:10:32.544Z,3.40
2017-11-11T09:11:32.524Z,3.20
2017-11-11T09:12:32.521Z,2.80
2017-11-11T09:13:32.540Z,3.44
2017-11-11T09:14:32.505Z,3.25
2017-11-11T09:15:32.495Z,3.18
2017-11-11T09:16:32.498Z,3.36
2017-11-11T09:17:32.480Z,3.29
2017-11-11T09:18:32.470Z,3.84
2017-11-11T09:19:32.471Z,3.61
2017-11-11T09:20:32.450Z,3.82
2017-11-11T09:21:33.172Z,3.52
2017-11-11T09:22:32.448Z,3.54
2017-11-11T09:23:32.427Z,3.74
2017-11-11T09:24:32.413Z,3.92
2017-11-11T09:25:32.415Z,3.62
2017-11-11T09:26:32.449Z,3.34
2017-11-11T09:27:32.390Z,3.27
2017-11-11T09:28:32.389Z,3.49
2017-11-11T09:29:32.376Z,3.49
2017-11-11T09:30:32.421Z,4.14
2017-11-11T09:31:32.361Z,4.00
2017-11-11T09:32:32.349Z,3.97
2017-11-11T09:33:32.342Z,4.17
2017-11-11T09:34:32.335Z,4.13
2017-11-11T09:35:32.320Z,4.08
2017-11-11T09:36:32.334Z,3.59
2017-11-11T09:37:32.305Z,3.75
2017-11-11T09:38:32.298Z,4.22
2017-11-11T09:39:32.324Z,4.21
2017-11-11T09:40:32.284Z,4.78
2017-11-11T09:41:32.275Z,4.04
2017-11-11T09:42:32.283Z,4.06
2017-11-11T09:43:32.260Z,4.16
2017-11-11T09:44:32.248Z,4.14
2017-11-11T09:45:32.257Z,4.05
2017-11-11T09:46:32.230Z,4.17
2017-11-11T09:47:32.240Z,4.29
2017-11-11T09:48:32.220Z,4.23
2017-11-11T09:49:32.211Z,4.17
2017-11-11T09:50:32.211Z,4.78
2017-11-11T09:51:32.195Z,4.53
2017-11-11T09:52:32.185Z,4.58
2017-11-11T09:53:32.201Z,4.73
2017-11-11T09:54:32.170Z,5.16
2017-11-11T09:55:32.177Z,4.66
2017-11-11T09:56:32.166Z,4.84
2017-11-11T09:57:32.157Z,4.60
2017-11-11T09:58:32.130Z,4.92
2017-11-11T09:59:32.129Z,4.45
2017-11-11T10:00:32.122Z,4.70
2017-11-11T10:01:32.117Z,4.78
2017-11-11T10:02:34.666Z,4.92
2017-11-11T10:03:32.098Z,4.74
2017-11-11T10:04:32.094Z,4.75
2017-11-11T10:05:32.075Z,5.30
2017-11-11T10:06:32.100Z,5.23
2017-11-11T10:07:32.087Z,4.94
2017-11-11T10:08:32.055Z,4.49
2017-11-11T10:09:32.054Z,5.36
2017-11-11T10:10:32.051Z,5.34
2017-11-11T10:11:34.670Z,4.72
2017-11-11T10:12:32.038Z,4.94
2017-11-11T10:13:32.680Z,4.79
2017-11-11T10:14:32.677Z,4.87
2017-11-11T10:15:34.681Z,5.16
2017-11-11T10:16:31.981Z,5.52
2017-11-11T10:17:34.680Z,5.15
2017-11-11T10:18:31.967Z,7.70
2017-11-11T10:19:31.960Z,16.19
2017-11-11T10:20:31.975Z,10.41
2017-11-11T10:21:31.944Z,8.25
2017-11-11T10:22:31.934Z,10.00
2017-11-11T10:23:31.933Z,10.93
2017-11-11T10:24:31.947Z,9.07
2017-11-11T10:25:33.244Z,10.25
2017-11-11T10:26:31.911Z,14.54
2017-11-11T10:27:38.687Z,6.38
2017-11-11T10:28:32.673Z,6.06
2017-11-11T10:29:31.925Z,5.69
2017-11-11T10:30:32.672Z,7.16
2017-11-11T10:31:31.864Z,9.30
2017-11-11T10:32:31.856Z,5.66
2017-11-11T10:33:31.857Z,6.87
2017-11-11T10:34:31.839Z,7.62
2017-11-11T10:35:31.827Z,5.82
2017-11-11T10:36:31.857Z,6.64
2017-11-11T10:37:31.822Z,8.53
2017-11-11T10:38:31.813Z,10.26
2017-11-11T10:39:32.685Z,14.78
2017-11-11T10:40:31.797Z,12.98
2017-11-11T10:41:34.675Z,7.30
2017-11-11T10:42:34.694Z,7.92
2017-11-11T10:43:32.713Z,8.03
2017-11-11T10:44:48.929Z,9.07
2017-11-11T10:45:39.431Z,10.25
2017-11-11T10:46:39.420Z,9.14
2017-11-11T10:47:39.411Z,9.80
2017-11-11T10:48:39.421Z,8.83
2017-11-11T10:49:40.188Z,10.39
2017-11-11T10:50:39.405Z,11.15
2017-11-11T10:51:40.184Z,14.12
2017-11-11T10:52:40.182Z,15.14
2017-11-11T10:53:39.363Z,9.13
2017-11-11T10:54:39.361Z,7.42
2017-11-11T10:55:40.188Z,5.60
2017-11-11T10:56:40.193Z,5.47
2017-11-11T10:57:40.190Z,4.44
2017-11-11T10:58:39.336Z,4.63
2017-11-11T10:59:39.317Z,4.24
2017-11-11T11:00:40.240Z,3.36
2017-11-11T11:01:39.308Z,3.46
2017-11-11T11:02:40.181Z,3.26
2017-11-11T11:03:39.302Z,2.84
2017-11-11T11:04:39.289Z,2.88
2017-11-11T11:05:39.273Z,3.08
2017-11-11T11:06:39.275Z,2.97
2017-11-11T11:07:39.253Z,3.39
2017-11-11T11:08:39.244Z,3.34
2017-11-11T11:09:39.252Z,3.62
2017-11-11T11:10:39.239Z,3.56
2017-11-11T11:11:39.226Z,3.49
2017-11-11T11:12:39.239Z,3.36
2017-11-11T11:13:39.213Z,3.28
2017-11-11T11:14:39.197Z,3.27
2017-11-11T11:15:41.688Z,3.28
2017-11-11T11:16:39.185Z,3.30
2017-11-11T11:17:39.168Z,2.98
2017-11-11T11:18:41.708Z,2.86
2017-11-11T11:19:39.156Z,2.92
2017-11-11T11:20:39.146Z,3.24
2017-11-11T11:21:39.146Z,3.28
2017-11-11T11:22:53.712Z,3.03
2017-11-11T11:23:44.294Z,3.01
2017-11-11T11:24:44.179Z,3.15
2017-11-11T11:25:51.841Z,2.97
2017-11-11T11:28:30.133Z,3.06
2017-11-11T11:29:30.096Z,2.97
2017-11-11T11:32:41.532Z,3.12
2017-11-11T11:33:41.503Z,3.50
2017-11-11T11:36:30.379Z,3.38
2017-11-11T11:37:30.361Z,3.35
2017-11-11T11:38:30.939Z,3.34
2017-11-11T11:39:30.320Z,3.40
2017-11-11T11:40:30.321Z,3.43
2017-11-11T11:41:30.295Z,3.25
2017-11-11T11:42:30.298Z,3.51
2017-11-11T11:43:30.289Z,4.28
2017-11-11T11:44:30.278Z,3.62
2017-11-11T11:45:30.933Z,3.45
2017-11-11T11:46:30.270Z,3.77
2017-11-11T11:47:30.938Z,3.44
2017-11-11T11:48:30.251Z,3.47
2017-11-11T11:49:30.247Z,3.54
2017-11-11T11:49:42.240Z,0.14
2017-11-11T11:51:36.933Z,3.01
2017-11-11T11:52:31.324Z,3.13
2017-11-11T11:53:30.940Z,3.19
2017-11-11T11:54:30.196Z,3.66
2017-11-11T11:55:30.932Z,3.64
2017-11-11T11:56:30.181Z,3.71
2017-11-11T11:57:30.192Z,3.95
2017-11-11T11:58:30.180Z,3.85
2017-11-11T11:59:30.164Z,3.75
2017-11-11T12:00:30.165Z,4.16
2017-11-11T12:01:30.139Z,4.39
2017-11-11T12:02:30.139Z,4.36
2017-11-11T12:03:30.125Z,4.64
2017-11-11T12:04:30.121Z,4.52
2017-11-11T12:05:30.122Z,4.76
2017-11-11T12:06:30.095Z,4.92
2017-11-11T12:07:30.095Z,5.12
2017-11-11T12:08:30.083Z,4.65
2017-11-11T12:09:30.081Z,4.54
2017-11-11T12:10:30.069Z,4.62
2017-11-11T12:11:30.949Z,4.65
2017-11-11T12:12:30.050Z,4.85
2017-11-11T12:13:36.950Z,4.70
2017-11-11T12:14:30.040Z,4.25
2017-11-11T12:15:30.947Z,4.34
2017-11-11T12:16:30.013Z,4.52
2017-11-11T12:17:30.951Z,4.96
2017-11-11T12:18:30.008Z,4.51
2017-11-11T12:19:30.804Z,4.74
2017-11-11T12:20:29.980Z,4.71
2017-11-11T12:21:38.775Z,4.67
2017-11-11T12:24:14.355Z,4.58
2017-11-11T12:25:22.160Z,4.27
2017-11-11T12:27:11.260Z,0.18
2017-11-11T12:28:58.667Z,4.24
2017-11-11T12:31:43.045Z,3.98
2017-11-11T12:32:43.021Z,4.25
2017-11-11T12:33:43.591Z,3.83
2017-11-11T12:34:42.998Z,3.94
2017-11-11T12:35:42.989Z,3.96
2017-11-11T12:36:51.609Z,4.18
2017-11-11T12:39:36.476Z,4.06
2017-11-11T12:40:37.456Z,4.12
2017-11-11T12:43:12.387Z,4.53
2017-11-11T12:44:11.319Z,4.59
2017-11-11T12:46:54.717Z,4.84
2017-11-11T12:47:54.678Z,4.35
2017-11-11T12:50:38.054Z,4.16
2017-11-11T12:51:38.605Z,4.41
2017-11-11T12:54:30.067Z,4.48
2017-11-11T12:55:21.400Z,4.43
2017-11-11T12:58:05.783Z,4.57
2017-11-11T12:59:05.761Z,4.34
2017-11-11T13:01:49.132Z,4.82
2017-11-11T13:02:49.086Z,4.65
2017-11-11T13:05:33.475Z,5.10
2017-11-11T13:06:33.434Z,5.17
2017-11-11T13:09:17.848Z,5.33
2017-11-11T13:10:17.796Z,5.16
2017-11-11T13:13:02.185Z,4.77
2017-11-11T13:14:02.207Z,4.25
2017-11-11T13:16:45.531Z,4.23
2017-11-11T13:17:45.501Z,3.97
2017-11-11T13:18:45.507Z,3.96
2017-11-11T13:19:45.485Z,4.24
2017-11-11T13:20:45.468Z,4.55
2017-11-11T13:21:45.465Z,4.36
2017-11-11T13:22:45.454Z,4.04
2017-11-11T13:23:45.446Z,4.04
2017-11-11T13:24:45.437Z,4.60
2017-11-11T13:25:46.074Z,4.44
2017-11-11T13:26:45.418Z,3.89
2017-11-11T13:27:45.410Z,4.39
2017-11-11T13:28:45.397Z,4.18
2017-11-11T13:29:45.397Z,4.03
2017-11-11T13:30:45.389Z,4.27
2017-11-11T13:31:45.382Z,4.22
2017-11-11T13:32:45.385Z,4.18
2017-11-11T13:33:45.373Z,4.42
2017-11-11T13:34:45.355Z,4.42
2017-11-11T13:35:45.371Z,4.30
2017-11-11T13:36:45.367Z,4.22
2017-11-11T13:37:45.346Z,4.44
2017-11-11T13:38:45.321Z,4.88
2017-11-11T13:39:45.309Z,4.48
2017-11-11T13:40:45.317Z,4.76
2017-11-11T13:41:45.292Z,4.41
2017-11-11T13:42:45.296Z,4.59
2017-11-11T13:43:45.276Z,4.99
2017-11-11T13:44:45.272Z,4.84
2017-11-11T13:45:45.261Z,5.02
2017-11-11T13:46:45.262Z,5.47
2017-11-11T13:47:45.244Z,5.12
2017-11-11T13:48:45.241Z,5.67
2017-11-11T13:49:45.227Z,5.88
2017-11-11T13:50:45.212Z,4.98
2017-11-11T13:51:45.215Z,4.60
2017-11-11T13:52:45.193Z,4.35
2017-11-11T13:53:45.188Z,4.70
2017-11-11T13:54:45.179Z,4.96
2017-11-11T13:55:45.173Z,4.92
2017-11-11T13:56:46.087Z,4.92
2017-11-11T13:57:45.147Z,4.54
2017-11-11T13:58:46.103Z,4.50
2017-11-11T13:59:45.144Z,4.87
2017-11-11T14:00:45.123Z,4.96
2017-11-11T14:01:45.124Z,4.80
2017-11-11T14:02:45.253Z,4.44
2017-11-11T14:03:45.104Z,4.89
2017-11-11T14:04:45.101Z,4.82
2017-11-11T14:05:45.084Z,4.66
2017-11-11T14:06:45.244Z,4.90
2017-11-11T14:07:45.062Z,4.80
2017-11-11T14:08:45.060Z,4.89
2017-11-11T14:09:45.073Z,4.92
2017-11-11T14:10:45.042Z,4.98
2017-11-11T14:11:45.034Z,4.77
2017-11-11T14:12:45.021Z,4.79
2017-11-11T14:13:45.016Z,4.64
2017-11-11T14:14:45.001Z,4.59
2017-11-11T14:15:44.994Z,4.97